Time;durP1;ratioP1;P1;durP2;ratioP2;P2;SDS_P1;SDS_P2;PMS_P1;PMS_P2;Temp;Humidity;BMP_temperature;BMP_pressure;BME280_temperature;BME280_humidity;BME280_pressure;Samples;Min_cycle;Max_cycle;Signal;HPM_P1;HPM_P2
2023/07/19 00:00:54;;;;;;;7.20;4.75;;;;;;;28.24;43.16;95371.03;4988714;28;20099;-79
2023/07/19 00:03:21;;;;;;;8.27;4.80;;;;;;;28.16;43.41;95369.41;4989966;28;20069;-79
2023/07/19 00:05:48;;;;;;;9.52;5.72;;;;;;;28.15;43.23;95375.25;4988728;28;20023;-78
2023/07/19 00:08:14;;;;;;;11.20;5.15;;;;;;;28.24;43.86;95398.28;4990351;28;20026;-78
2023/07/19 00:10:40;;;;;;;12.13;5.45;;;;;;;28.25;43.90;95416.22;4988536;28;20082;-78
2023/07/19 00:13:05;;;;;;;10.68;5.85;;;;;;;28.08;43.95;95403.22;4988853;28;20499;-79
2023/07/19 00:15:31;;;;;;;12.32;5.53;;;;;;;27.96;43.58;95389.91;4988428;28;20041;-79
2023/07/19 00:17:56;;;;;;;8.52;5.70;;;;;;;27.85;43.94;95361.78;5021437;28;20121;-79
2023/07/19 00:20:22;;;;;;;8.35;5.43;;;;;;;27.97;43.84;95389.53;4989784;28;20034;-78
2023/07/19 00:22:47;;;;;;;14.43;6.18;;;;;;;27.70;44.53;95352.75;4988318;28;20130;-79
2023/07/19 00:25:13;;;;;;;11.82;6.60;;;;;;;28.03;44.48;95404.38;4988995;28;20054;-78
2023/07/19 00:27:38;;;;;;;16.17;6.63;;;;;;;27.79;44.84;95376.94;4989980;28;20035;-78
2023/07/19 00:30:04;;;;;;;10.65;6.20;;;;;;;27.69;44.50;95364.03;4988609;28;20038;-79
2023/07/19 00:32:29;;;;;;;13.07;6.40;;;;;;;27.78;44.28;95376.16;4988675;28;20034;-79
2023/07/19 00:34:55;;;;;;;10.90;5.97;;;;;;;27.54;44.71;95353.00;4989987;28;20090;-79
2023/07/19 00:37:20;;;;;;;12.07;6.35;;;;;;;27.78;44.51;95386.28;4988616;28;20106;-79
2023/07/19 00:39:46;;;;;;;13.13;6.38;;;;;;;27.65;44.79;95377.63;4988107;28;20091;-79
2023/07/19 00:42:11;;;;;;;9.70;6.75;;;;;;;27.84;45.22;95415.53;4989591;28;20042;-78
2023/07/19 00:44:37;;;;;;;10.95;7.32;;;;;;;27.72;44.88;95401.41;4988879;28;20027;-79
2023/07/19 00:47:02;;;;;;;11.32;6.20;;;;;;;27.76;44.83;95411.19;4988846;28;20421;-79
2023/07/19 00:49:31;;;;;;;9.70;6.13;;;;;;;27.74;45.03;95416.22;4988317;28;20064;-78
2023/07/19 00:51:59;;;;;;;18.75;6.90;;;;;;;27.68;44.63;95411.50;4988551;28;20033;-78
2023/07/19 00:54:25;;;;;;;11.15;6.78;;;;;;;27.64;45.42;95416.91;4988370;28;20042;-79
2023/07/19 00:56:50;;;;;;;10.75;5.95;;;;;;;27.49;45.53;95396.91;4990271;28;20030;-78
2023/07/19 00:59:18;;;;;;;10.05;6.65;;;;;;;27.49;45.43;95398.88;4988661;28;20039;-79
2023/07/19 01:01:46;;;;;;;9.13;6.50;;;;;;;27.50;45.64;95417.56;4989733;28;20027;-79
2023/07/19 01:04:12;;;;;;;10.98;6.35;;;;;;;26.99;45.39;95343.19;4989403;28;20121;-78
2023/07/19 01:06:38;;;;;;;10.68;6.65;;;;;;;27.46;45.12;95410.53;4990084;28;20125;-79
2023/07/19 01:09:04;;;;;;;8.18;5.75;;;;;;;26.47;45.59;95272.28;4992165;28;20038;-79
2023/07/19 01:11:29;;;;;;;15.23;6.60;;;;;;;27.06;45.83;95365.03;4992126;28;20096;-78
2023/07/19 01:13:55;;;;;;;8.88;6.07;;;;;;;26.92;45.99;95346.63;4992399;28;20057;-78
2023/07/19 01:16:22;;;;;;;12.15;6.45;;;;;;;27.21;46.48;95389.28;4992644;28;20479;-79
2023/07/19 01:18:48;;;;;;;8.35;6.07;;;;;;;27.27;46.90;95404.13;4992807;28;20038;-79
2023/07/19 01:21:14;;;;;;;8.68;6.35;;;;;;;27.04;46.88;95373.56;4993133;28;20060;-78
2023/07/19 01:23:40;;;;;;;9.68;6.28;;;;;;;26.81;47.18;95342.97;4991703;28;20058;-78
2023/07/19 01:26:05;;;;;;;10.20;6.53;;;;;;;27.05;47.67;95390.69;4991671;28;20038;-79
2023/07/19 01:28:31;;;;;;;9.65;6.28;;;;;;;26.93;47.63;95380.81;4991505;28;20488;-78
2023/07/19 01:30:57;;;;;;;10.75;6.03;;;;;;;27.09;47.49;95403.16;4993062;28;20077;-79
2023/07/19 01:33:22;;;;;;;15.07;6.65;;;;;;;26.97;47.53;95381.66;4991304;28;20034;-78
2023/07/19 01:35:47;;;;;;;13.23;6.28;;;;;;;26.91;47.50;95371.47;4991224;28;20041;-78
2023/07/19 01:38:13;;;;;;;11.82;7.20;;;;;;;26.86;47.66;95373.34;4992569;28;20031;-78
2023/07/19 01:40:38;;;;;;;11.38;7.00;;;;;;;26.85;47.99;95366.31;4992903;28;20105;-78
2023/07/19 01:43:04;;;;;;;12.52;6.82;;;;;;;26.82;47.89;95377.97;4993290;28;20038;-78
2023/07/19 01:45:29;;;;;;;10.07;5.68;;;;;;;26.60;47.97;95364.50;5024903;28;20026;-78
2023/07/19 01:47:55;;;;;;;11.00;6.63;;;;;;;26.43;48.75;95342.16;4994335;28;20548;-79
2023/07/19 01:50:20;;;;;;;11.35;6.68;;;;;;;26.66;48.84;95379.34;5023877;28;20121;-79
2023/07/19 01:52:45;;;;;;;11.80;6.22;;;;;;;26.59;48.76;95377.31;4991795;28;20038;-78
2023/07/19 01:55:11;;;;;;;13.60;6.68;;;;;;;26.62;49.17;95389.41;4991576;28;20034;-78
2023/07/19 01:57:36;;;;;;;9.45;6.65;;;;;;;26.49;49.13;95364.38;4992547;28;20119;-79
2023/07/19 02:00:03;;;;;;;12.20;6.75;;;;;;;26.61;49.45;95396.78;4991744;28;20045;-78
2023/07/19 02:02:29;;;;;;;11.35;6.50;;;;;;;26.57;49.27;95397.88;4991700;28;20026;-78
2023/07/19 02:04:54;;;;;;;14.65;6.88;;;;;;;26.43;49.21;95387.59;4991620;28;20412;-78
2023/07/19 02:07:20;;;;;;;10.15;5.65;;;;;;;26.57;49.32;95412.25;4993566;28;20100;-78
2023/07/19 02:09:46;;;;;;;16.05;6.82;;;;;;;26.55;48.78;95414.56;4991121;28;20035;-79
2023/07/19 02:12:11;;;;;;;12.90;6.13;;;;;;;26.36;48.76;95379.34;4993433;28;20034;-78
2023/07/19 02:14:37;;;;;;;13.88;6.68;;;;;;;26.14;48.98;95340.22;4993667;28;20050;-78
2023/07/19 02:17:02;;;;;;;11.13;6.18;;;;;;;26.35;49.03;95372.34;4992082;28;20142;-78
2023/07/19 02:19:28;;;;;;;13.98;6.93;;;;;;;26.09;49.45;95321.53;5024642;28;20045;-79
2023/07/19 02:21:53;;;;;;;7.38;5.90;;;;;;;26.05;49.34;95326.13;4991769;28;20167;-78
2023/07/19 02:24:19;;;;;;;12.35;6.90;;;;;;;26.27;48.89;95351.66;4992128;28;20048;-79
2023/07/19 02:26:44;;;;;;;7.85;6.00;;;;;;;26.24;48.77;95355.09;4991515;28;20045;-78
2023/07/19 02:29:10;;;;;;;10.77;6.95;;;;;;;26.21;48.98;95348.47;4992858;28;20046;-78
2023/07/19 02:31:35;;;;;;;14.65;7.20;;;;;;;26.41;48.54;95379.81;4991590;28;20406;-78
2023/07/19 02:34:01;;;;;;;13.80;6.72;;;;;;;26.11;48.48;95322.72;4991464;28;20031;-79
2023/07/19 02:36:27;;;;;;;14.80;6.25;;;;;;;26.00;48.52;95300.06;4992476;28;20077;-78
2023/07/19 02:38:52;;;;;;;11.88;6.57;;;;;;;26.43;48.45;95368.56;4992123;28;20089;-78
2023/07/19 02:41:18;;;;;;;10.48;6.75;;;;;;;26.41;48.58;95370.88;4991178;28;20133;-78
2023/07/19 02:43:43;;;;;;;13.38;6.78;;;;;;;26.29;48.73;95362.97;4991082;28;20095;-78
2023/07/19 02:46:09;;;;;;;15.75;7.05;;;;;;;26.25;48.77;95362.09;4990945;28;20480;-78
2023/07/19 02:48:35;;;;;;;13.85;7.28;;;;;;;26.37;47.77;95373.56;4990778;28;20145;-78
2023/07/19 02:51:00;;;;;;;18.95;7.50;;;;;;;26.31;48.38;95366.09;4991995;28;20083;-78
2023/07/19 02:53:26;;;;;;;17.92;7.35;;;;;;;26.36;48.21;95374.72;4991974;28;20038;-78
2023/07/19 02:55:52;;;;;;;12.80;6.97;;;;;;;26.35;48.20;95370.41;4991837;28;20046;-78
2023/07/19 02:58:17;;;;;;;9.32;6.43;;;;;;;26.07;47.98;95323.81;4992179;28;20108;-78
2023/07/19 03:00:43;;;;;;;12.52;6.50;;;;;;;26.38;47.84;95371.63;4992153;28;20038;-78
2023/07/19 03:03:11;;;;;;;10.45;6.10;;;;;;;26.36;47.90;95360.31;4992082;28;20048;-78
2023/07/19 03:05:42;;;;;;;10.52;6.22;;;;;;;26.19;47.97;95339.09;4990589;28;20026;-78
2023/07/19 03:08:11;;;;;;;17.90;7.03;;;;;;;26.31;47.28;95361.44;4991285;28;20084;-78
2023/07/19 03:10:37;;;;;;;10.52;6.95;;;;;;;26.33;47.02;95358.34;4990850;28;20429;-79
2023/07/19 03:13:03;;;;;;;11.73;6.63;;;;;;;26.42;47.51;95375.94;4991143;28;20042;-79
2023/07/19 03:15:32;;;;;;;15.32;7.32;;;;;;;26.34;47.30;95370.78;4991669;28;20044;-79
2023/07/19 03:18:07;;;;;;;10.70;6.85;;;;;;;26.13;47.56;95358.47;4990085;28;20030;-78
2023/07/19 03:20:32;;;;;;;10.00;6.82;;;;;;;26.01;47.43;95341.59;4989970;28;20037;-78
2023/07/19 03:22:59;;;;;;;10.20;6.85;;;;;;;25.95;47.38;95326.75;5023010;28;20081;-78
2023/07/19 03:25:25;;;;;;;9.57;6.13;;;;;;;26.03;47.33;95344.72;5022725;28;20524;-78
2023/07/19 03:27:51;;;;;;;10.55;6.22;;;;;;;26.04;47.98;95371.53;4990627;28;20038;-79
2023/07/19 03:30:17;;;;;;;11.75;7.15;;;;;;;26.00;48.16;95357.13;4990443;28;20034;-79
2023/07/19 03:32:43;;;;;;;16.20;6.80;;;;;;;25.99;48.03;95358.28;4990057;28;20038;-78
2023/07/19 03:35:08;;;;;;;14.32;6.82;;;;;;;26.04;48.54;95363.38;4989933;28;20221;-78
2023/07/19 03:37:35;;;;;;;10.52;6.75;;;;;;;26.04;48.52;95360.66;4989817;28;20064;-78
2023/07/19 03:40:01;;;;;;;7.43;6.30;;;;;;;25.72;48.78;95305.09;4989807;28;20146;-78
2023/07/19 03:42:26;;;;;;;8.70;6.43;;;;;;;25.97;48.88;95346.97;4991244;28;20108;-79
2023/07/19 03:44:52;;;;;;;11.52;7.50;;;;;;;25.97;48.99;95338.03;4990848;28;20034;-79
2023/07/19 03:47:17;;;;;;;9.48;6.60;;;;;;;25.91;48.99;95334.88;4991135;28;20048;-78
2023/07/19 03:49:43;;;;;;;16.77;7.35;;;;;;;25.95;49.10;95326.75;4991418;28;20030;-78
2023/07/19 03:52:08;;;;;;;14.48;7.28;;;;;;;25.95;49.11;95322.09;4990117;28;20030;-79
2023/07/19 03:54:34;;;;;;;14.77;7.25;;;;;;;25.74;48.95;95275.63;4989974;28;20038;-78
2023/07/19 03:56:59;;;;;;;13.85;7.57;;;;;;;25.78;48.87;95289.28;4989694;28;20030;-78
2023/07/19 03:59:25;;;;;;;11.35;6.38;;;;;;;25.55;48.86;95267.59;5022187;28;20034;-79
2023/07/19 04:01:51;;;;;;;12.15;7.03;;;;;;;25.84;48.44;95315.75;4990993;28;20125;-79
2023/07/19 04:04:16;;;;;;;10.07;6.88;;;;;;;25.85;48.03;95301.03;5022500;28;20121;-78
2023/07/19 04:06:42;;;;;;;9.85;6.85;;;;;;;26.00;48.00;95319.09;4989501;28;20072;-78
2023/07/19 04:09:07;;;;;;;10.15;5.78;;;;;;;25.85;47.88;95306.47;4989787;28;20034;-78
2023/07/19 04:11:33;;;;;;;12.82;7.15;;;;;;;26.00;48.00;95321.81;4989394;28;20030;-78
2023/07/19 04:13:59;;;;;;;14.77;7.10;;;;;;;26.04;47.45;95324.56;4990823;28;20495;-79
2023/07/19 04:16:25;;;;;;;12.48;6.43;;;;;;;25.85;47.66;95305.66;4989098;28;20038;-78
2023/07/19 04:18:52;;;;;;;8.65;5.95;;;;;;;25.90;47.83;95306.13;4988879;28;20077;-78
2023/07/19 04:21:17;;;;;;;8.20;6.05;;;;;;;26.14;47.40;95327.41;4989006;28;20042;-79
2023/07/19 04:23:43;;;;;;;10.35;6.05;;;;;;;26.04;47.38;95311.75;4990704;28;20038;-78
2023/07/19 04:26:08;;;;;;;16.40;6.82;;;;;;;26.13;47.43;95320.41;4990829;28;20034;-78
2023/07/19 04:28:34;;;;;;;13.20;7.28;;;;;;;25.91;47.23;95290.59;4990526;28;20577;-79
2023/07/19 04:30:59;;;;;;;11.35;6.80;;;;;;;26.02;47.47;95299.66;4990724;28;20091;-78
2023/07/19 04:33:25;;;;;;;14.98;6.88;;;;;;;26.14;47.81;95321.19;4991052;28;20034;-78
2023/07/19 04:35:50;;;;;;;13.60;6.97;;;;;;;25.98;47.89;95280.63;4990283;28;20061;-78
2023/07/19 04:38:16;;;;;;;17.65;7.95;;;;;;;26.24;47.70;95309.69;4990691;28;20040;-79
2023/07/19 04:40:41;;;;;;;16.23;6.88;;;;;;;26.35;47.71;95329.63;4988728;28;20034;-78
2023/07/19 04:43:07;;;;;;;17.88;7.28;;;;;;;26.21;47.72;95301.47;4990364;28;20485;-78
2023/07/19 04:45:32;;;;;;;17.05;7.68;;;;;;;26.28;47.91;95317.91;4989198;28;20031;-78
2023/07/19 04:47:58;;;;;;;13.95;7.75;;;;;;;26.35;47.86;95326.13;4990217;28;20393;-79
2023/07/19 04:50:24;;;;;;;12.60;7.35;;;;;;;26.20;47.77;95297.97;4989027;28;20053;-79
2023/07/19 04:52:53;;;;;;;15.13;7.45;;;;;;;26.39;47.65;95330.47;4988834;28;20121;-78
2023/07/19 04:55:20;;;;;;;12.73;6.82;;;;;;;26.34;47.71;95316.41;4989010;28;20041;-78
2023/07/19 04:57:45;;;;;;;17.80;8.38;;;;;;;26.27;47.52;95300.00;4989930;28;20077;-78
2023/07/19 05:00:11;;;;;;;13.32;7.15;;;;;;;26.26;47.62;95306.59;4988532;28;20066;-79
2023/07/19 05:02:43;;;;;;;12.38;7.28;;;;;;;26.47;47.95;95340.25;4988185;28;20485;-78
2023/07/19 05:05:09;;;;;;;15.75;7.53;;;;;;;26.38;47.56;95317.25;4986889;28;20522;-79
2023/07/19 05:07:36;;;;;;;10.90;6.78;;;;;;;26.54;47.80;95333.34;4994788;28;20436;-78
2023/07/19 05:10:04;;;;;;;12.90;6.35;;;;;;;26.54;47.58;95336.88;5061834;28;20115;-79
2023/07/19 05:12:30;;;;;;;19.23;8.40;;;;;;;26.45;47.30;95322.75;4987629;28;20038;-78
2023/07/19 05:14:56;;;;;;;18.85;9.93;;;;;;;26.54;47.43;95334.13;4988450;28;20039;-79
2023/07/19 05:17:22;;;;;;;15.75;8.98;;;;;;;26.59;47.55;95330.28;4987930;28;20061;-79
2023/07/19 05:19:47;;;;;;;16.50;10.13;;;;;;;26.61;47.20;95328.00;4989390;28;20473;-78
2023/07/19 05:22:12;;;;;;;18.00;9.45;;;;;;;26.65;47.16;95328.81;4989641;28;20485;-79
2023/07/19 05:24:38;;;;;;;20.05;9.57;;;;;;;26.48;47.74;95294.81;4987553;28;20030;-78
2023/07/19 05:27:04;;;;;;;16.27;9.88;;;;;;;26.67;47.27;95315.63;5020193;28;20552;-79
2023/07/19 05:29:29;;;;;;;18.70;10.52;;;;;;;26.58;47.49;95309.69;4989082;28;20026;-79
2023/07/19 05:31:55;;;;;;;18.65;9.48;;;;;;;26.72;47.66;95324.22;4989260;28;20038;-78
2023/07/19 05:34:22;;;;;;;16.30;10.07;;;;;;;26.67;47.66;95304.75;4987570;28;20038;-78
2023/07/19 05:36:47;;;;;;;13.80;8.52;;;;;;;26.56;47.82;95291.00;4987046;28;20030;-79
2023/07/19 05:39:13;;;;;;;15.27;8.10;;;;;;;26.77;47.97;95323.13;5020177;28;20026;-79
2023/07/19 05:41:39;;;;;;;22.58;8.85;;;;;;;26.68;47.77;95306.31;4987546;28;20440;-79
2023/07/19 05:44:05;;;;;;;18.50;9.18;;;;;;;26.74;47.74;95302.88;4988511;28;20038;-79
2023/07/19 05:46:30;;;;;;;14.60;8.65;;;;;;;26.85;47.68;95309.19;4987162;28;20507;-79
2023/07/19 05:48:56;;;;;;;16.65;9.02;;;;;;;26.68;47.72;95271.72;4989109;28;20053;-79
2023/07/19 05:51:21;;;;;;;25.00;9.13;;;;;;;26.89;48.04;95310.00;5014884;28;20445;-79
2023/07/19 05:53:47;;;;;;;19.27;8.00;;;;;;;26.70;47.77;95276.81;4994816;28;20046;-78
2023/07/19 05:56:12;;;;;;;27.52;7.90;;;;;;;26.36;47.38;95211.56;4992290;28;20034;-79
2023/07/19 05:58:38;;;;;;;22.08;9.85;;;;;;;26.97;47.28;95310.91;5005703;28;20130;-79
2023/07/19 06:01:07;;;;;;;30.15;9.75;;;;;;;27.06;47.57;95305.94;5073499;28;20064;-79
2023/07/19 06:03:33;;;;;;;17.90;8.60;;;;;;;26.98;47.64;95296.13;5073282;28;20033;-79
2023/07/19 06:06:02;;;;;;;16.58;8.20;;;;;;;27.13;48.13;95308.72;5073632;28;20568;-79
2023/07/19 06:08:28;;;;;;;16.55;8.40;;;;;;;27.09;47.64;95288.03;5072010;28;20055;-79
2023/07/19 06:10:53;;;;;;;22.73;8.68;;;;;;;27.19;47.38;95298.25;5073114;28;20515;-78
2023/07/19 06:13:19;;;;;;;22.30;8.43;;;;;;;27.13;47.68;95294.31;5072508;28;20101;-79
2023/07/19 06:15:44;;;;;;;19.08;8.18;;;;;;;27.13;47.32;95291.59;5056504;28;20367;-79
2023/07/19 06:18:10;;;;;;;22.73;7.45;;;;;;;27.20;47.07;95294.38;4971726;28;20516;-79
2023/07/19 06:20:36;;;;;;;17.90;8.00;;;;;;;27.32;46.81;95298.72;4971158;28;20042;-78
2023/07/19 06:23:02;;;;;;;16.02;8.20;;;;;;;27.27;47.21;95276.16;4971098;28;20042;-79
2023/07/19 06:25:27;;;;;;;16.35;8.05;;;;;;;27.46;46.90;95302.38;4970327;28;20031;-79
2023/07/19 06:27:53;;;;;;;27.77;7.97;;;;;;;27.40;46.67;95286.72;4970561;28;20498;-79
2023/07/19 06:30:18;;;;;;;16.67;8.15;;;;;;;27.20;46.52;95261.69;4971669;28;20035;-79
2023/07/19 06:32:44;;;;;;;19.95;7.57;;;;;;;27.44;46.02;95293.00;4969623;28;20539;-79
2023/07/19 06:35:09;;;;;;;16.63;8.25;;;;;;;27.46;45.53;95291.47;4971159;28;20042;-78
2023/07/19 06:37:35;;;;;;;16.05;7.80;;;;;;;27.23;45.81;95263.69;4971841;28;20039;-79
2023/07/19 06:40:03;;;;;;;19.20;9.55;;;;;;;27.18;45.69;95232.13;4970685;28;20035;-78
2023/07/19 06:42:29;;;;;;;20.40;8.35;;;;;;;27.50;45.44;95283.31;4970079;28;20039;-79
2023/07/19 06:44:56;;;;;;;20.48;8.48;;;;;;;27.50;45.57;95278.66;4971747;28;20563;-79
2023/07/19 06:47:21;;;;;;;23.85;8.85;;;;;;;27.56;45.73;95295.44;4969895;28;20039;-79
2023/07/19 06:49:47;;;;;;;27.92;9.95;;;;;;;27.66;45.25;95292.00;4969756;28;20116;-78
2023/07/19 06:52:12;;;;;;;22.85;8.82;;;;;;;27.73;45.29;95292.06;4970010;28;20035;-79
2023/07/19 06:54:39;;;;;;;26.45;8.63;;;;;;;27.61;45.36;95265.91;4969855;28;20476;-79
2023/07/19 06:57:05;;;;;;;25.70;9.00;;;;;;;27.68;45.31;95284.25;4970028;28;20543;-79
2023/07/19 06:59:31;;;;;;;23.02;8.15;;;;;;;27.57;45.37;95277.94;4970152;28;20070;-79
2023/07/19 07:01:56;;;;;;;20.23;8.13;;;;;;;27.83;44.99;95304.19;4972031;28;20039;-79
2023/07/19 07:04:22;;;;;;;18.08;9.35;;;;;;;27.69;45.40;95279.59;4970331;28;20505;-79
2023/07/19 07:06:47;;;;;;;23.67;10.10;;;;;;;27.73;45.31;95286.59;4970022;28;20568;-79
2023/07/19 07:09:14;;;;;;;16.75;8.70;;;;;;;27.81;45.40;95301.03;4971388;28;20039;-79
2023/07/19 07:11:40;;;;;;;24.42;8.73;;;;;;;27.61;44.99;95265.13;4969706;28;20034;-79
2023/07/19 07:14:06;;;;;;;15.23;8.60;;;;;;;27.69;45.13;95298.66;4969341;28;20042;-79
2023/07/19 07:16:31;;;;;;;15.38;7.65;;;;;;;27.51;45.42;95252.19;4970002;28;20126;-79
2023/07/19 07:18:57;;;;;;;16.75;8.95;;;;;;;27.86;45.18;95298.75;4971051;28;20114;-78
2023/07/19 07:21:23;;;;;;;22.83;8.85;;;;;;;27.72;45.59;95282.31;4970768;28;20042;-79
2023/07/19 07:23:48;;;;;;;19.88;8.65;;;;;;;27.78;44.99;95280.78;4987627;28;20519;-78
2023/07/19 07:26:14;;;;;;;18.25;10.38;;;;;;;28.00;45.14;95292.56;5022885;28;20095;-78
2023/07/19 07:28:40;;;;;;;20.70;9.55;;;;;;;27.86;44.76;95267.97;4988832;28;20073;-79
2023/07/19 07:31:08;;;;;;;16.85;9.45;;;;;;;27.61;45.37;95251.50;5021441;28;20058;-79
2023/07/19 07:33:34;;;;;;;23.92;9.10;;;;;;;28.05;44.59;95284.06;4988994;28;20066;-79
2023/07/19 07:36:01;;;;;;;20.75;10.30;;;;;;;28.04;45.41;95287.94;4989703;28;20050;-78
2023/07/19 07:38:27;;;;;;;24.10;9.10;;;;;;;27.99;44.46;95270.00;4989222;28;20038;-79
2023/07/19 07:41:02;;;;;;;21.55;9.48;;;;;;;28.20;44.25;95276.75;5056396;28;20082;-78
2023/07/19 07:43:31;;;;;;;20.23;9.30;;;;;;;28.22;43.97;95263.50;4994929;28;20049;-79
2023/07/19 07:45:57;;;;;;;18.67;8.60;;;;;;;28.25;43.92;95249.88;4988744;28;20121;-79
2023/07/19 07:48:23;;;;;;;22.10;8.55;;;;;;;28.22;43.97;95226.13;5042961;28;20059;-79
2023/07/19 07:50:52;;;;;;;23.98;8.98;;;;;;;28.58;44.35;95270.63;5071075;28;20086;-78
2023/07/19 07:53:18;;;;;;;28.02;9.18;;;;;;;28.58;44.35;95272.56;5070857;28;20028;-79
2023/07/19 07:55:44;;;;;;;25.80;9.48;;;;;;;28.07;44.84;95226.44;5016442;28;20054;-79
2023/07/19 07:58:10;;;;;;;20.60;8.88;;;;;;;28.36;44.11;95242.53;5021890;28;20060;-79
2023/07/19 08:00:36;;;;;;;18.05;8.77;;;;;;;28.60;43.28;95265.56;5022132;28;20058;-79
2023/07/19 08:03:01;;;;;;;20.98;8.32;;;;;;;28.64;43.31;95260.88;4988305;28;20038;-79
2023/07/19 08:05:27;;;;;;;15.20;8.10;;;;;;;28.43;43.03;95209.03;4990071;28;20136;-79
2023/07/19 08:07:52;;;;;;;17.10;7.85;;;;;;;28.40;42.15;95182.50;5021184;28;20038;-79
2023/07/19 08:10:18;;;;;;;17.42;7.97;;;;;;;28.93;41.58;95252.75;4988146;28;20062;-79
2023/07/19 08:12:43;;;;;;;22.58;7.57;;;;;;;28.87;41.56;95224.28;5067541;28;20092;-79
2023/07/19 08:15:09;;;;;;;18.45;7.43;;;;;;;29.01;41.89;95224.28;5069904;28;20032;-79
2023/07/19 08:17:34;;;;;;;17.85;8.13;;;;;;;28.84;42.82;95193.09;5104327;28;20101;-79
2023/07/19 08:20:00;;;;;;;17.38;8.50;;;;;;;29.12;42.08;95231.31;5071330;28;20089;-79
2023/07/19 08:22:28;;;;;;;16.15;7.93;;;;;;;29.14;41.99;95223.50;5071959;28;20033;-79
2023/07/19 08:24:54;;;;;;;17.52;7.90;;;;;;;29.10;40.87;95211.81;5070573;28;20055;-79
2023/07/19 08:27:20;;;;;;;22.13;8.43;;;;;;;29.07;41.17;95189.97;5070041;28;20033;-79
2023/07/19 08:29:46;;;;;;;15.23;7.53;;;;;;;29.12;40.80;95200.50;5071085;28;20036;-79
2023/07/19 08:32:12;;;;;;;14.38;7.75;;;;;;;29.44;40.55;95252.41;5070863;28;20105;-79
2023/07/19 08:34:38;;;;;;;22.75;8.02;;;;;;;29.20;40.41;95185.69;5053312;28;20505;-79
2023/07/19 08:37:04;;;;;;;13.57;7.35;;;;;;;29.14;39.66;95217.28;5069624;28;20036;-78
2023/07/19 08:39:29;;;;;;;19.55;7.65;;;;;;;29.33;40.75;95244.19;5061891;28;20047;-79
2023/07/19 08:41:55;;;;;;;20.88;7.80;;;;;;;29.35;40.43;95239.13;4968037;28;20050;-79
2023/07/19 08:44:24;;;;;;;13.60;7.05;;;;;;;29.38;40.44;95218.44;4966766;28;20549;-79
2023/07/19 08:46:49;;;;;;;13.82;6.38;;;;;;;29.09;40.62;95152.91;4969562;28;20039;-79
2023/07/19 08:49:18;;;;;;;15.70;7.90;;;;;;;29.52;41.08;95208.25;4968210;28;20035;-79
2023/07/19 08:51:45;;;;;;;18.20;7.57;;;;;;;29.58;41.34;95207.88;4967805;28;20046;-79
2023/07/19 08:54:11;;;;;;;12.18;7.15;;;;;;;29.59;39.75;95220.38;4967914;28;20035;-79
2023/07/19 08:56:38;;;;;;;14.90;6.60;;;;;;;29.58;38.87;95188.75;4968142;28;20035;-79
2023/07/19 08:59:05;;;;;;;18.00;7.20;;;;;;;29.86;38.72;95205.81;4968106;28;20033;-78
2023/07/19 09:01:31;;;;;;;17.38;7.63;;;;;;;29.78;38.49;95176.94;4965978;28;20038;-79
2023/07/19 09:03:56;;;;;;;18.92;7.40;;;;;;;29.91;39.12;95182.75;5057409;28;20094;-79
2023/07/19 09:06:28;;;;;;;17.85;7.45;;;;;;;29.80;39.28;95163.69;4967938;28;20039;-79
2023/07/19 09:08:55;;;;;;;11.38;6.63;;;;;;;30.15;38.72;95198.28;4968221;28;20046;-79
2023/07/19 09:11:24;;;;;;;18.42;7.72;;;;;;;30.06;38.74;95175.31;4966443;28;20576;-79
2023/07/19 09:13:55;;;;;;;17.15;7.38;;;;;;;30.14;38.18;95187.75;4966357;28;20115;-79
2023/07/19 09:16:28;;;;;;;18.88;7.63;;;;;;;30.23;37.75;95185.34;4958568;28;20031;-79
2023/07/19 09:18:54;;;;;;;17.95;7.50;;;;;;;29.77;37.68;95098.84;4966985;28;20419;-79
2023/07/19 09:21:36;;;;;;;17.60;6.95;;;;;;;30.23;36.69;95177.94;4966659;28;20035;-79
2023/07/19 09:24:08;;;;;;;13.63;6.97;;;;;;;29.83;36.91;95154.66;4967248;28;20034;-79
2023/07/19 09:26:57;;;;;;;12.80;6.85;;;;;;;30.21;36.52;95174.81;4968923;28;20027;-79
2023/07/19 09:29:27;;;;;;;19.73;7.43;;;;;;;30.26;36.88;95195.50;4972590;28;20042;-79
2023/07/19 09:31:58;;;;;;;19.25;7.32;;;;;;;30.17;36.44;95173.28;4969671;28;20209;-79
2023/07/19 09:34:36;;;;;;;;;;;;;;;30.40;36.86;95181.75;4971844;28;20038;-79
2023/07/19 09:37:02;;;;;;;14.85;8.10;;;;;;;30.22;37.55;95159.97;4972039;28;19922;-79
2023/07/19 09:39:29;;;;;;;12.60;7.30;;;;;;;30.43;36.59;95172.75;4970647;28;20546;-79
2023/07/19 09:41:57;;;;;;;14.45;7.60;;;;;;;30.43;37.14;95158.28;4969836;28;20042;-79
2023/07/19 09:44:23;;;;;;;14.77;7.18;;;;;;;30.44;36.84;95152.41;4971993;28;20027;-79
2023/07/19 09:46:48;;;;;;;17.95;6.30;;;;;;;30.64;36.46;95158.94;4969950;28;20031;-79
2023/07/19 09:49:14;;;;;;;15.20;6.97;;;;;;;30.37;36.70;95119.63;4969347;28;20031;-79
2023/07/19 09:51:41;;;;;;;15.05;6.95;;;;;;;30.57;35.88;95078.84;4971590;28;20073;-79
2023/07/19 09:54:09;;;;;;;12.00;6.88;;;;;;;31.95;34.85;95145.91;4971526;28;20106;-79
2023/07/19 09:56:35;;;;;;;14.30;7.03;;;;;;;32.96;33.40;95157.78;4970149;28;20034;-79
2023/07/19 09:59:03;;;;;;;16.80;7.05;;;;;;;33.53;32.12;95121.06;4971847;28;20102;-79
2023/07/19 10:01:29;;;;;;;17.63;6.32;;;;;;;34.90;30.77;95157.81;5057509;28;20027;-79
2023/07/19 10:03:57;;;;;;;13.35;5.85;;;;;;;35.75;28.99;95157.63;4970311;28;20543;-79
2023/07/19 10:06:29;;;;;;;10.80;6.53;;;;;;;35.93;28.71;95138.59;4955223;28;20027;-80
2023/07/19 10:09:23;;;;;;;18.45;6.57;;;;;;;37.03;27.03;95149.78;4962563;28;20038;-79
2023/07/19 10:11:49;;;;;;;11.43;5.80;;;;;;;37.69;25.80;95125.06;4970400;28;20540;-80
2023/07/19 10:14:25;;;;;;;99.45;17.10;;;;;;;38.18;25.30;95128.00;4970937;28;20126;-79
2023/07/19 10:16:55;;;;;;;15.48;6.22;;;;;;;38.63;24.71;95130.22;4971411;28;20420;-80
2023/07/19 10:19:20;;;;;;;18.52;6.35;;;;;;;38.79;23.72;95112.56;4971933;28;20035;-80
2023/07/19 10:22:06;;;;;;;13.82;7.00;;;;;;;39.60;23.33;95127.78;4971311;28;20112;-80
2023/07/19 10:24:34;;;;;;;13.15;5.55;;;;;;;39.75;23.14;95134.22;4970977;28;20088;-80
2023/07/19 10:27:02;;;;;;;12.35;5.55;;;;;;;39.32;22.41;95124.97;4971059;28;20527;-79
2023/07/19 10:29:38;;;;;;;13.27;5.57;;;;;;;39.36;21.79;95120.06;4971263;28;20513;-80
2023/07/19 10:32:04;;;;;;;8.13;5.20;;;;;;;39.70;21.57;95098.78;4972485;28;20519;-80
2023/07/19 10:34:29;;;;;;;7.53;5.53;;;;;;;39.42;21.42;95100.81;4970141;28;20102;-80
2023/07/19 10:37:01;;;;;;;10.40;5.63;;;;;;;40.07;20.46;95107.81;4970842;28;20070;-80
2023/07/19 10:39:27;;;;;;;7.82;5.00;;;;;;;39.63;19.69;95110.97;4970871;28;20039;-80
2023/07/19 10:41:53;;;;;;;13.52;5.65;;;;;;;39.07;20.72;95124.47;4970682;28;20068;-80
2023/07/19 10:44:20;;;;;;;12.10;5.85;;;;;;;38.31;21.41;95122.34;4954442;28;20043;-80
2023/07/19 10:46:45;;;;;;;14.15;5.75;;;;;;;38.04;21.59;95114.66;4972185;28;20022;-80
2023/07/19 10:49:11;;;;;;;11.18;5.88;;;;;;;37.36;22.34;95119.88;4971438;28;20123;-80
2023/07/19 10:51:37;;;;;;;16.38;5.43;;;;;;;37.72;22.44;95090.94;4970959;28;20062;-79
2023/07/19 10:54:03;;;;;;;10.50;5.28;;;;;;;38.13;22.65;95112.75;4970780;28;20043;-80
2023/07/19 10:56:28;;;;;;;10.52;5.70;;;;;;;38.06;22.48;95106.72;4956873;28;20410;-79
2023/07/19 10:59:01;;;;;;;14.10;5.45;;;;;;;37.95;22.09;95120.91;4963174;28;20477;-79
2023/07/19 11:01:28;;;;;;;14.32;5.60;;;;;;;37.96;22.55;95103.09;4970966;28;20042;-80
2023/07/19 11:04:00;;;;;;;14.50;6.15;;;;;;;38.13;22.10;95095.38;4971855;28;20035;-80
2023/07/19 11:06:26;;;;;;;12.63;6.38;;;;;;;38.31;22.05;95087.13;4970946;28;20359;-80
2023/07/19 11:08:51;;;;;;;11.50;5.50;;;;;;;38.32;21.81;95107.28;5060808;28;20049;-80
2023/07/19 11:11:17;;;;;;;12.38;5.80;;;;;;;38.83;21.29;95091.00;4977084;28;20039;-80
2023/07/19 11:13:45;;;;;;;13.70;6.00;;;;;;;39.00;21.56;95106.16;4969524;28;20063;-80
2023/07/19 11:16:11;;;;;;;11.38;5.70;;;;;;;38.41;22.40;95087.94;4953046;28;20046;-80
2023/07/19 11:18:40;;;;;;;10.57;5.45;;;;;;;38.42;22.14;95057.00;4983185;28;20034;-80
2023/07/19 11:21:07;;;;;;;15.13;5.68;;;;;;;38.44;21.72;95104.44;5054243;28;20121;-79
2023/07/19 11:23:41;;;;;;;21.77;5.40;;;;;;;38.16;21.79;95094.44;4953452;28;20038;-80